sensor_id;sensor_type;location;lat;lon;timestamp;P1;durP1;ratioP1;P2;durP2;ratioP2
1294;SDS011;640;48.310;11.728;2022-07-11T00:01:11;6.47;;;3.40;;
1294;SDS011;640;48.310;11.728;2022-07-11T00:03:39;5.32;;;3.45;;
1294;SDS011;640;48.310;11.728;2022-07-11T00:06:08;6.45;;;3.45;;
1294;SDS011;640;48.310;11.728;2022-07-11T00:08:36;8.23;;;3.58;;
1294;SDS011;640;48.310;11.728;2022-07-11T00:11:06;8.68;;;3.40;;
1294;SDS011;640;48.310;11.728;2022-07-11T00:13:35;6.35;;;3.30;;
1294;SDS011;640;48.310;11.728;2022-07-11T00:16:04;8.93;;;4.13;;
1294;SDS011;640;48.310;11.728;2022-07-11T00:18:38;7.15;;;3.90;;
1294;SDS011;640;48.310;11.728;2022-07-11T00:21:06;6.95;;;3.20;;
1294;SDS011;640;48.310;11.728;2022-07-11T00:23:35;8.15;;;3.75;;
1294;SDS011;640;48.310;11.728;2022-07-11T00:26:03;7.63;;;3.10;;
1294;SDS011;640;48.310;11.728;2022-07-11T00:28:34;8.27;;;3.47;;
1294;SDS011;640;48.310;11.728;2022-07-11T00:31:02;4.88;;;3.10;;
1294;SDS011;640;48.310;11.728;2022-07-11T00:33:31;4.60;;;3.03;;
1294;SDS011;640;48.310;11.728;2022-07-11T00:35:59;5.85;;;3.20;;
1294;SDS011;640;48.310;11.728;2022-07-11T00:38:28;5.95;;;3.30;;
1294;SDS011;640;48.310;11.728;2022-07-11T00:40:57;5.07;;;3.00;;
1294;SDS011;640;48.310;11.728;2022-07-11T00:43:32;7.10;;;3.42;;
1294;SDS011;640;48.310;11.728;2022-07-11T00:46:02;8.00;;;3.05;;
1294;SDS011;640;48.310;11.728;2022-07-11T00:48:31;7.38;;;3.70;;
1294;SDS011;640;48.310;11.728;2022-07-11T00:51:00;4.78;;;2.90;;
1294;SDS011;640;48.310;11.728;2022-07-11T00:53:30;7.07;;;3.33;;
1294;SDS011;640;48.310;11.728;2022-07-11T00:55:59;5.47;;;3.13;;
1294;SDS011;640;48.310;11.728;2022-07-11T00:58:28;7.88;;;3.35;;
1294;SDS011;640;48.310;11.728;2022-07-11T01:00:58;5.53;;;2.85;;
1294;SDS011;640;48.310;11.728;2022-07-11T01:03:26;7.65;;;3.20;;
1294;SDS011;640;48.310;11.728;2022-07-11T01:05:55;5.88;;;3.30;;
1294;SDS011;640;48.310;11.728;2022-07-11T01:08:23;5.85;;;3.30;;
1294;SDS011;640;48.310;11.728;2022-07-11T01:10:51;7.55;;;3.35;;
1294;SDS011;640;48.310;11.728;2022-07-11T01:13:20;5.40;;;3.05;;
1294;SDS011;640;48.310;11.728;2022-07-11T01:15:49;5.70;;;3.45;;
1294;SDS011;640;48.310;11.728;2022-07-11T01:18:19;7.05;;;3.30;;
1294;SDS011;640;48.310;11.728;2022-07-11T01:20:47;6.93;;;3.08;;
1294;SDS011;640;48.310;11.728;2022-07-11T01:23:17;5.50;;;3.55;;
1294;SDS011;640;48.310;11.728;2022-07-11T01:25:45;7.65;;;3.72;;
1294;SDS011;640;48.310;11.728;2022-07-11T01:28:14;7.28;;;3.35;;
1294;SDS011;640;48.310;11.728;2022-07-11T01:30:43;5.82;;;3.40;;
1294;SDS011;640;48.310;11.728;2022-07-11T01:33:12;4.85;;;3.20;;
1294;SDS011;640;48.310;11.728;2022-07-11T01:35:40;6.68;;;3.22;;
1294;SDS011;640;48.310;11.728;2022-07-11T01:38:08;5.88;;;3.05;;
1294;SDS011;640;48.310;11.728;2022-07-11T01:40:38;5.45;;;3.30;;
1294;SDS011;640;48.310;11.728;2022-07-11T01:43:06;4.93;;;2.90;;
1294;SDS011;640;48.310;11.728;2022-07-11T01:45:35;6.10;;;3.40;;
1294;SDS011;640;48.310;11.728;2022-07-11T01:48:03;6.05;;;3.38;;
1294;SDS011;640;48.310;11.728;2022-07-11T01:50:32;6.63;;;3.72;;
1294;SDS011;640;48.310;11.728;2022-07-11T01:53:00;7.45;;;3.45;;
1294;SDS011;640;48.310;11.728;2022-07-11T01:55:29;6.55;;;3.45;;
1294;SDS011;640;48.310;11.728;2022-07-11T01:57:59;6.25;;;3.28;;
1294;SDS011;640;48.310;11.728;2022-07-11T02:00:27;7.97;;;3.57;;
1294;SDS011;640;48.310;11.728;2022-07-11T02:02:56;5.85;;;3.40;;
1294;SDS011;640;48.310;11.728;2022-07-11T02:05:25;6.57;;;3.28;;
1294;SDS011;640;48.310;11.728;2022-07-11T02:07:53;6.85;;;3.70;;
1294;SDS011;640;48.310;11.728;2022-07-11T02:10:43;7.20;;;3.50;;
1294;SDS011;640;48.310;11.728;2022-07-11T02:13:14;4.90;;;3.05;;
1294;SDS011;640;48.310;11.728;2022-07-11T02:15:43;6.95;;;3.40;;
1294;SDS011;640;48.310;11.728;2022-07-11T02:18:13;5.15;;;3.35;;
1294;SDS011;640;48.310;11.728;2022-07-11T02:20:41;7.03;;;3.50;;
1294;SDS011;640;48.310;11.728;2022-07-11T02:23:12;6.57;;;3.72;;
1294;SDS011;640;48.310;11.728;2022-07-11T02:25:40;6.15;;;3.20;;
1294;SDS011;640;48.310;11.728;2022-07-11T02:28:09;7.32;;;3.15;;
1294;SDS011;640;48.310;11.728;2022-07-11T02:30:41;8.73;;;3.90;;
1294;SDS011;640;48.310;11.728;2022-07-11T02:33:10;6.90;;;4.50;;
1294;SDS011;640;48.310;11.728;2022-07-11T02:35:42;7.75;;;4.30;;
1294;SDS011;640;48.310;11.728;2022-07-11T02:38:10;7.07;;;3.60;;
1294;SDS011;640;48.310;11.728;2022-07-11T02:40:39;8.00;;;3.70;;
1294;SDS011;640;48.310;11.728;2022-07-11T02:43:07;8.48;;;3.53;;
1294;SDS011;640;48.310;11.728;2022-07-11T02:45:35;7.60;;;3.85;;
1294;SDS011;640;48.310;11.728;2022-07-11T02:48:05;4.05;;;3.10;;
1294;SDS011;640;48.310;11.728;2022-07-11T02:50:34;5.75;;;3.63;;
1294;SDS011;640;48.310;11.728;2022-07-11T02:53:02;5.03;;;3.40;;
1294;SDS011;640;48.310;11.728;2022-07-11T02:55:31;8.32;;;3.95;;
1294;SDS011;640;48.310;11.728;2022-07-11T02:57:59;5.80;;;3.55;;
1294;SDS011;640;48.310;11.728;2022-07-11T03:00:27;5.38;;;3.00;;
1294;SDS011;640;48.310;11.728;2022-07-11T03:02:55;7.75;;;3.17;;
1294;SDS011;640;48.310;11.728;2022-07-11T03:05:25;3.95;;;2.67;;
1294;SDS011;640;48.310;11.728;2022-07-11T03:07:54;4.70;;;3.07;;
1294;SDS011;640;48.310;11.728;2022-07-11T03:10:22;5.30;;;2.80;;
1294;SDS011;640;48.310;11.728;2022-07-11T03:12:51;3.95;;;2.83;;
1294;SDS011;640;48.310;11.728;2022-07-11T03:15:19;5.78;;;2.53;;
1294;SDS011;640;48.310;11.728;2022-07-11T03:17:48;4.47;;;2.42;;
1294;SDS011;640;48.310;11.728;2022-07-11T03:20:17;4.57;;;2.47;;
1294;SDS011;640;48.310;11.728;2022-07-11T03:22:47;4.57;;;2.72;;
1294;SDS011;640;48.310;11.728;2022-07-11T03:25:16;5.03;;;2.58;;
1294;SDS011;640;48.310;11.728;2022-07-11T03:27:44;4.88;;;2.53;;
1294;SDS011;640;48.310;11.728;2022-07-11T03:30:12;3.58;;;2.35;;
1294;SDS011;640;48.310;11.728;2022-07-11T03:32:41;4.47;;;2.80;;
1294;SDS011;640;48.310;11.728;2022-07-11T03:35:10;4.95;;;3.20;;
1294;SDS011;640;48.310;11.728;2022-07-11T03:37:57;5.95;;;3.33;;
1294;SDS011;640;48.310;11.728;2022-07-11T03:40:25;5.80;;;3.30;;
1294;SDS011;640;48.310;11.728;2022-07-11T03:42:53;5.07;;;2.90;;
1294;SDS011;640;48.310;11.728;2022-07-11T03:45:22;5.82;;;3.00;;
1294;SDS011;640;48.310;11.728;2022-07-11T03:47:50;4.40;;;2.50;;
1294;SDS011;640;48.310;11.728;2022-07-11T03:50:18;5.03;;;2.30;;
1294;SDS011;640;48.310;11.728;2022-07-11T03:52:47;6.15;;;2.50;;
1294;SDS011;640;48.310;11.728;2022-07-11T03:55:16;3.55;;;2.25;;
1294;SDS011;640;48.310;11.728;2022-07-11T03:57:45;3.45;;;2.10;;
1294;SDS011;640;48.310;11.728;2022-07-11T04:00:14;4.32;;;2.40;;
1294;SDS011;640;48.310;11.728;2022-07-11T04:02:43;4.53;;;2.20;;
1294;SDS011;640;48.310;11.728;2022-07-11T04:05:11;4.30;;;2.33;;
1294;SDS011;640;48.310;11.728;2022-07-11T04:07:40;3.72;;;1.83;;
1294;SDS011;640;48.310;11.728;2022-07-11T04:10:09;2.72;;;1.90;;
1294;SDS011;640;48.310;11.728;2022-07-11T04:12:39;5.15;;;2.08;;
1294;SDS011;640;48.310;11.728;2022-07-11T04:15:08;3.92;;;2.28;;
1294;SDS011;640;48.310;11.728;2022-07-11T04:17:37;5.68;;;2.20;;
1294;SDS011;640;48.310;11.728;2022-07-11T04:20:06;2.90;;;1.90;;
1294;SDS011;640;48.310;11.728;2022-07-11T04:22:35;5.43;;;2.08;;
1294;SDS011;640;48.310;11.728;2022-07-11T04:25:03;6.53;;;2.20;;
1294;SDS011;640;48.310;11.728;2022-07-11T04:27:32;4.43;;;2.55;;
1294;SDS011;640;48.310;11.728;2022-07-11T04:30:08;4.95;;;2.17;;
1294;SDS011;640;48.310;11.728;2022-07-11T04:32:37;3.97;;;2.17;;
1294;SDS011;640;48.310;11.728;2022-07-11T04:35:06;5.20;;;2.10;;
1294;SDS011;640;48.310;11.728;2022-07-11T04:37:34;3.03;;;2.03;;
1294;SDS011;640;48.310;11.728;2022-07-11T04:40:03;5.90;;;2.20;;
1294;SDS011;640;48.310;11.728;2022-07-11T04:42:38;5.38;;;2.17;;
1294;SDS011;640;48.310;11.728;2022-07-11T04:45:09;3.22;;;1.95;;
1294;SDS011;640;48.310;11.728;2022-07-11T04:47:38;3.38;;;2.10;;
1294;SDS011;640;48.310;11.728;2022-07-11T04:50:06;4.22;;;2.10;;
1294;SDS011;640;48.310;11.728;2022-07-11T04:52:35;7.20;;;2.10;;
1294;SDS011;640;48.310;11.728;2022-07-11T04:55:04;7.05;;;2.17;;
1294;SDS011;640;48.310;11.728;2022-07-11T04:57:33;4.07;;;2.05;;
1294;SDS011;640;48.310;11.728;2022-07-11T05:00:03;3.05;;;1.55;;
1294;SDS011;640;48.310;11.728;2022-07-11T05:02:34;3.10;;;1.90;;
1294;SDS011;640;48.310;11.728;2022-07-11T05:05:03;4.70;;;1.70;;
1294;SDS011;640;48.310;11.728;2022-07-11T05:07:31;3.63;;;1.73;;
1294;SDS011;640;48.310;11.728;2022-07-11T05:10:00;4.47;;;1.98;;
1294;SDS011;640;48.310;11.728;2022-07-11T05:12:28;2.65;;;1.80;;
1294;SDS011;640;48.310;11.728;2022-07-11T05:14:57;4.00;;;1.83;;
1294;SDS011;640;48.310;11.728;2022-07-11T05:17:26;3.97;;;1.75;;
1294;SDS011;640;48.310;11.728;2022-07-11T05:19:56;4.05;;;1.88;;
1294;SDS011;640;48.310;11.728;2022-07-11T05:22:24;2.90;;;1.80;;
1294;SDS011;640;48.310;11.728;2022-07-11T05:24:53;3.25;;;1.83;;
1294;SDS011;640;48.310;11.728;2022-07-11T05:27:21;3.90;;;1.88;;
1294;SDS011;640;48.310;11.728;2022-07-11T05:29:49;5.25;;;2.00;;
1294;SDS011;640;48.310;11.728;2022-07-11T05:32:18;6.13;;;2.15;;
1294;SDS011;640;48.310;11.728;2022-07-11T05:34:46;3.75;;;1.90;;
1294;SDS011;640;48.310;11.728;2022-07-11T05:37:16;4.75;;;1.88;;
1294;SDS011;640;48.310;11.728;2022-07-11T05:39:44;6.23;;;2.30;;
1294;SDS011;640;48.310;11.728;2022-07-11T05:42:12;3.88;;;2.13;;
1294;SDS011;640;48.310;11.728;2022-07-11T05:44:41;3.72;;;1.85;;
1294;SDS011;640;48.310;11.728;2022-07-11T05:47:09;3.53;;;1.73;;
1294;SDS011;640;48.310;11.728;2022-07-11T05:49:38;2.97;;;2.03;;
1294;SDS011;640;48.310;11.728;2022-07-11T05:52:06;3.70;;;1.98;;
1294;SDS011;640;48.310;11.728;2022-07-11T05:54:36;5.55;;;1.73;;
1294;SDS011;640;48.310;11.728;2022-07-11T05:57:05;7.85;;;2.08;;
1294;SDS011;640;48.310;11.728;2022-07-11T05:59:33;3.13;;;2.03;;
1294;SDS011;640;48.310;11.728;2022-07-11T06:02:04;5.03;;;2.10;;
1294;SDS011;640;48.310;11.728;2022-07-11T06:04:34;6.68;;;2.10;;
1294;SDS011;640;48.310;11.728;2022-07-11T06:07:03;4.07;;;1.80;;
1294;SDS011;640;48.310;11.728;2022-07-11T06:09:32;4.88;;;2.00;;
1294;SDS011;640;48.310;11.728;2022-07-11T06:12:01;3.67;;;1.90;;
1294;SDS011;640;48.310;11.728;2022-07-11T06:14:30;4.35;;;1.75;;
1294;SDS011;640;48.310;11.728;2022-07-11T06:16:58;4.65;;;1.83;;
1294;SDS011;640;48.310;11.728;2022-07-11T06:19:27;5.40;;;1.77;;
1294;SDS011;640;48.310;11.728;2022-07-11T06:21:56;3.25;;;1.70;;
1294;SDS011;640;48.310;11.728;2022-07-11T06:24:24;4.22;;;1.63;;
1294;SDS011;640;48.310;11.728;2022-07-11T06:26:53;3.13;;;1.60;;
1294;SDS011;640;48.310;11.728;2022-07-11T06:29:27;6.55;;;1.90;;
1294;SDS011;640;48.310;11.728;2022-07-11T06:31:56;2.80;;;1.52;;
1294;SDS011;640;48.310;11.728;2022-07-11T06:34:24;3.55;;;1.45;;
1294;SDS011;640;48.310;11.728;2022-07-11T06:36:53;1.83;;;1.33;;
1294;SDS011;640;48.310;11.728;2022-07-11T06:39:21;5.57;;;1.67;;
1294;SDS011;640;48.310;11.728;2022-07-11T06:41:49;3.58;;;1.30;;
1294;SDS011;640;48.310;11.728;2022-07-11T06:44:18;7.13;;;1.52;;
1294;SDS011;640;48.310;11.728;2022-07-11T06:46:55;4.47;;;1.42;;
1294;SDS011;640;48.310;11.728;2022-07-11T06:49:24;3.22;;;1.27;;
1294;SDS011;640;48.310;11.728;2022-07-11T06:51:52;2.72;;;1.20;;
1294;SDS011;640;48.310;11.728;2022-07-11T06:54:20;3.78;;;1.23;;
1294;SDS011;640;48.310;11.728;2022-07-11T06:56:49;3.92;;;1.45;;
1294;SDS011;640;48.310;11.728;2022-07-11T06:59:17;4.82;;;1.60;;
1294;SDS011;640;48.310;11.728;2022-07-11T07:01:46;3.03;;;1.27;;
1294;SDS011;640;48.310;11.728;2022-07-11T07:04:27;5.47;;;1.33;;
1294;SDS011;640;48.310;11.728;2022-07-11T07:07:47;4.82;;;1.45;;
1294;SDS011;640;48.310;11.728;2022-07-11T07:10:15;3.53;;;1.35;;
1294;SDS011;640;48.310;11.728;2022-07-11T07:12:44;3.83;;;1.23;;
1294;SDS011;640;48.310;11.728;2022-07-11T07:15:13;2.83;;;1.17;;
1294;SDS011;640;48.310;11.728;2022-07-11T07:17:41;4.38;;;1.50;;
1294;SDS011;640;48.310;11.728;2022-07-11T07:20:11;3.08;;;1.10;;
1294;SDS011;640;48.310;11.728;2022-07-11T07:22:40;3.92;;;1.15;;
1294;SDS011;640;48.310;11.728;2022-07-11T07:25:08;2.72;;;1.20;;
1294;SDS011;640;48.310;11.728;2022-07-11T07:27:36;4.22;;;1.45;;
1294;SDS011;640;48.310;11.728;2022-07-11T07:30:05;3.78;;;1.20;;
1294;SDS011;640;48.310;11.728;2022-07-11T07:32:34;5.90;;;1.20;;
1294;SDS011;640;48.310;11.728;2022-07-11T07:35:03;4.20;;;1.10;;
1294;SDS011;640;48.310;11.728;2022-07-11T07:40:03;3.47;;;1.13;;
1294;SDS011;640;48.310;11.728;2022-07-11T07:42:32;3.72;;;1.00;;
1294;SDS011;640;48.310;11.728;2022-07-11T07:45:01;4.35;;;1.20;;
1294;SDS011;640;48.310;11.728;2022-07-11T07:47:29;5.60;;;1.33;;
1294;SDS011;640;48.310;11.728;2022-07-11T07:49:57;3.78;;;1.40;;
1294;SDS011;640;48.310;11.728;2022-07-11T07:52:26;6.47;;;1.63;;
1294;SDS011;640;48.310;11.728;2022-07-11T07:54:55;7.40;;;1.38;;
1294;SDS011;640;48.310;11.728;2022-07-11T07:57:24;4.65;;;1.33;;
1294;SDS011;640;48.310;11.728;2022-07-11T07:59:52;3.15;;;1.30;;
1294;SDS011;640;48.310;11.728;2022-07-11T08:02:42;2.53;;;1.10;;
1294;SDS011;640;48.310;11.728;2022-07-11T08:05:10;3.28;;;1.10;;
1294;SDS011;640;48.310;11.728;2022-07-11T08:07:39;2.47;;;1.13;;
1294;SDS011;640;48.310;11.728;2022-07-11T08:10:09;5.97;;;1.13;;
1294;SDS011;640;48.310;11.728;2022-07-11T08:12:38;4.85;;;1.20;;
1294;SDS011;640;48.310;11.728;2022-07-11T08:15:07;2.20;;;1.00;;
1294;SDS011;640;48.310;11.728;2022-07-11T08:17:36;4.13;;;1.43;;
1294;SDS011;640;48.310;11.728;2022-07-11T08:20:05;4.10;;;1.20;;
1294;SDS011;640;48.310;11.728;2022-07-11T08:22:34;3.80;;;1.30;;
1294;SDS011;640;48.310;11.728;2022-07-11T08:25:02;4.13;;;1.23;;
1294;SDS011;640;48.310;11.728;2022-07-11T08:27:32;4.57;;;1.20;;
1294;SDS011;640;48.310;11.728;2022-07-11T08:30:06;2.10;;;1.20;;
1294;SDS011;640;48.310;11.728;2022-07-11T08:32:37;3.53;;;1.30;;
1294;SDS011;640;48.310;11.728;2022-07-11T08:35:07;2.70;;;1.27;;
1294;SDS011;640;48.310;11.728;2022-07-11T08:37:36;2.13;;;1.08;;
1294;SDS011;640;48.310;11.728;2022-07-11T08:40:04;4.32;;;1.20;;
1294;SDS011;640;48.310;11.728;2022-07-11T08:42:38;3.55;;;1.20;;
1294;SDS011;640;48.310;11.728;2022-07-11T08:45:10;1.55;;;0.63;;
1294;SDS011;640;48.310;11.728;2022-07-11T08:47:39;3.67;;;1.00;;
1294;SDS011;640;48.310;11.728;2022-07-11T08:50:08;7.47;;;1.30;;
1294;SDS011;640;48.310;11.728;2022-07-11T08:52:38;1.60;;;0.73;;
1294;SDS011;640;48.310;11.728;2022-07-11T08:55:07;2.67;;;0.90;;
1294;SDS011;640;48.310;11.728;2022-07-11T08:57:37;2.92;;;0.70;;
1294;SDS011;640;48.310;11.728;2022-07-11T09:00:06;1.92;;;0.68;;
1294;SDS011;640;48.310;11.728;2022-07-11T09:02:36;3.75;;;0.75;;
1294;SDS011;640;48.310;11.728;2022-07-11T09:05:09;1.80;;;0.60;;
1294;SDS011;640;48.310;11.728;2022-07-11T09:07:41;1.65;;;0.50;;
1294;SDS011;640;48.310;11.728;2022-07-11T09:10:10;1.33;;;0.60;;
1294;SDS011;640;48.310;11.728;2022-07-11T09:12:47;4.38;;;0.60;;
1294;SDS011;640;48.310;11.728;2022-07-11T09:15:32;1.73;;;0.75;;
1294;SDS011;640;48.310;11.728;2022-07-11T09:18:02;1.20;;;0.60;;
1294;SDS011;640;48.310;11.728;2022-07-11T09:23:40;1.67;;;0.80;;
1294;SDS011;640;48.310;11.728;2022-07-11T09:26:28;3.40;;;0.80;;
1294;SDS011;640;48.310;11.728;2022-07-11T09:29:05;2.50;;;0.65;;
1294;SDS011;640;48.310;11.728;2022-07-11T09:31:36;4.95;;;1.15;;
1294;SDS011;640;48.310;11.728;2022-07-11T09:34:06;3.08;;;0.88;;
1294;SDS011;640;48.310;11.728;2022-07-11T09:36:36;5.32;;;0.90;;
1294;SDS011;640;48.310;11.728;2022-07-11T09:39:06;2.80;;;0.90;;
1294;SDS011;640;48.310;11.728;2022-07-11T09:41:36;3.75;;;1.00;;
1294;SDS011;640;48.310;11.728;2022-07-11T09:44:07;2.60;;;0.95;;
1294;SDS011;640;48.310;11.728;2022-07-11T09:46:36;4.40;;;0.88;;
1294;SDS011;640;48.310;11.728;2022-07-11T09:49:05;1.40;;;0.80;;
1294;SDS011;640;48.310;11.728;2022-07-11T09:51:34;1.80;;;0.70;;
1294;SDS011;640;48.310;11.728;2022-07-11T09:54:04;2.10;;;0.60;;
1294;SDS011;640;48.310;11.728;2022-07-11T09:56:34;1.30;;;0.65;;
1294;SDS011;640;48.310;11.728;2022-07-11T09:59:24;1.38;;;0.90;;
1294;SDS011;640;48.310;11.728;2022-07-11T10:01:52;2.10;;;0.65;;
1294;SDS011;640;48.310;11.728;2022-07-11T10:04:21;1.23;;;0.50;;
1294;SDS011;640;48.310;11.728;2022-07-11T10:06:50;0.90;;;0.60;;
1294;SDS011;640;48.310;11.728;2022-07-11T10:09:18;0.77;;;0.50;;
1294;SDS011;640;48.310;11.728;2022-07-11T10:11:47;1.55;;;0.63;;
1294;SDS011;640;48.310;11.728;2022-07-11T10:14:15;1.17;;;0.50;;
1294;SDS011;640;48.310;11.728;2022-07-11T10:16:47;1.20;;;0.50;;
1294;SDS011;640;48.310;11.728;2022-07-11T10:19:22;2.20;;;0.57;;
1294;SDS011;640;48.310;11.728;2022-07-11T10:22:02;1.25;;;0.68;;
1294;SDS011;640;48.310;11.728;2022-07-11T10:24:37;1.27;;;0.70;;
1294;SDS011;640;48.310;11.728;2022-07-11T10:27:13;2.33;;;0.80;;
1294;SDS011;640;48.310;11.728;2022-07-11T10:29:49;2.30;;;0.80;;
1294;SDS011;640;48.310;11.728;2022-07-11T10:32:19;2.70;;;0.77;;
1294;SDS011;640;48.310;11.728;2022-07-11T10:40:39;0.90;;;0.70;;
1294;SDS011;640;48.310;11.728;2022-07-11T10:43:09;1.20;;;0.70;;
1294;SDS011;640;48.310;11.728;2022-07-11T10:45:56;1.80;;;0.90;;
1294;SDS011;640;48.310;11.728;2022-07-11T10:48:28;0.95;;;0.80;;
1294;SDS011;640;48.310;11.728;2022-07-11T10:51:03;3.05;;;0.80;;
1294;SDS011;640;48.310;11.728;2022-07-11T10:53:34;2.75;;;1.08;;
1294;SDS011;640;48.310;11.728;2022-07-11T10:56:10;1.83;;;0.70;;
1294;SDS011;640;48.310;11.728;2022-07-11T10:59:10;3.20;;;0.82;;
1294;SDS011;640;48.310;11.728;2022-07-11T11:04:46;0.95;;;0.80;;
1294;SDS011;640;48.310;11.728;2022-07-11T11:07:32;5.00;;;0.90;;
1294;SDS011;640;48.310;11.728;2022-07-11T11:10:04;2.53;;;0.82;;
1294;SDS011;640;48.310;11.728;2022-07-11T11:15:42;0.90;;;0.68;;
1294;SDS011;640;48.310;11.728;2022-07-11T11:18:30;2.08;;;0.70;;
1294;SDS011;640;48.310;11.728;2022-07-11T11:21:19;4.95;;;0.80;;
1294;SDS011;640;48.310;11.728;2022-07-11T11:26:45;4.22;;;1.10;;
1294;SDS011;640;48.310;11.728;2022-07-11T11:29:18;1.35;;;0.60;;
1294;SDS011;640;48.310;11.728;2022-07-11T11:31:51;2.55;;;1.02;;
1294;SDS011;640;48.310;11.728;2022-07-11T11:34:21;2.97;;;0.80;;
1294;SDS011;640;48.310;11.728;2022-07-11T11:36:55;1.77;;;0.70;;
1294;SDS011;640;48.310;11.728;2022-07-11T11:39:25;2.63;;;0.93;;
1294;SDS011;640;48.310;11.728;2022-07-11T11:44:28;2.50;;;0.80;;
1294;SDS011;640;48.310;11.728;2022-07-11T11:46:56;1.60;;;0.68;;
1294;SDS011;640;48.310;11.728;2022-07-11T11:49:25;1.17;;;0.80;;
1294;SDS011;640;48.310;11.728;2022-07-11T11:51:55;2.28;;;0.90;;
1294;SDS011;640;48.310;11.728;2022-07-11T11:54:24;1.17;;;0.70;;
1294;SDS011;640;48.310;11.728;2022-07-11T11:56:53;1.50;;;0.73;;
1294;SDS011;640;48.310;11.728;2022-07-11T11:59:28;1.35;;;0.70;;
1294;SDS011;640;48.310;11.728;2022-07-11T12:01:57;0.73;;;0.60;;
1294;SDS011;640;48.310;11.728;2022-07-11T12:04:29;1.45;;;0.70;;
1294;SDS011;640;48.310;11.728;2022-07-11T12:07:00;1.33;;;0.70;;
1294;SDS011;640;48.310;11.728;2022-07-11T12:09:29;2.60;;;0.80;;
1294;SDS011;640;48.310;11.728;2022-07-11T12:12:17;0.75;;;0.70;;
1294;SDS011;640;48.310;11.728;2022-07-11T12:15:05;1.88;;;0.77;;
1294;SDS011;640;48.310;11.728;2022-07-11T12:17:35;1.95;;;0.65;;
1294;SDS011;640;48.310;11.728;2022-07-11T12:20:04;1.05;;;0.60;;
1294;SDS011;640;48.310;11.728;2022-07-11T12:22:41;2.03;;;0.80;;
1294;SDS011;640;48.310;11.728;2022-07-11T12:25:10;2.78;;;0.75;;
1294;SDS011;640;48.310;11.728;2022-07-11T12:27:40;2.83;;;0.82;;
1294;SDS011;640;48.310;11.728;2022-07-11T12:30:20;1.17;;;0.70;;
1294;SDS011;640;48.310;11.728;2022-07-11T12:33:02;1.60;;;0.80;;
1294;SDS011;640;48.310;11.728;2022-07-11T12:35:35;0.70;;;0.60;;
1294;SDS011;640;48.310;11.728;2022-07-11T12:38:05;2.25;;;0.70;;
1294;SDS011;640;48.310;11.728;2022-07-11T12:40:34;1.52;;;0.77;;
1294;SDS011;640;48.310;11.728;2022-07-11T12:43:02;1.38;;;0.60;;
1294;SDS011;640;48.310;11.728;2022-07-11T12:46:02;1.95;;;0.75;;
1294;SDS011;640;48.310;11.728;2022-07-11T12:48:39;0.85;;;0.65;;
1294;SDS011;640;48.310;11.728;2022-07-11T12:51:08;0.50;;;0.50;;
1294;SDS011;640;48.310;11.728;2022-07-11T12:53:38;1.65;;;0.63;;
1294;SDS011;640;48.310;11.728;2022-07-11T12:56:06;0.77;;;0.60;;
1294;SDS011;640;48.310;11.728;2022-07-11T12:58:50;1.35;;;0.60;;
1294;SDS011;640;48.310;11.728;2022-07-11T13:01:18;0.50;;;0.50;;
1294;SDS011;640;48.310;11.728;2022-07-11T13:03:47;0.75;;;0.60;;
1294;SDS011;640;48.310;11.728;2022-07-11T13:06:15;0.60;;;0.57;;
1294;SDS011;640;48.310;11.728;2022-07-11T13:08:45;1.13;;;0.50;;
1294;SDS011;640;48.310;11.728;2022-07-11T13:11:13;0.73;;;0.60;;
1294;SDS011;640;48.310;11.728;2022-07-11T13:13:42;0.80;;;0.60;;
1294;SDS011;640;48.310;11.728;2022-07-11T13:16:13;1.38;;;0.65;;
1294;SDS011;640;48.310;11.728;2022-07-11T13:18:43;0.60;;;0.60;;
1294;SDS011;640;48.310;11.728;2022-07-11T13:21:13;0.73;;;0.60;;
1294;SDS011;640;48.310;11.728;2022-07-11T13:23:41;1.67;;;0.70;;
1294;SDS011;640;48.310;11.728;2022-07-11T13:26:11;1.25;;;0.60;;
1294;SDS011;640;48.310;11.728;2022-07-11T13:31:08;0.80;;;0.60;;
1294;SDS011;640;48.310;11.728;2022-07-11T13:33:40;0.70;;;0.60;;
1294;SDS011;640;48.310;11.728;2022-07-11T13:36:09;2.78;;;0.70;;
1294;SDS011;640;48.310;11.728;2022-07-11T13:38:37;1.05;;;0.88;;
1294;SDS011;640;48.310;11.728;2022-07-11T13:41:06;3.40;;;0.80;;
1294;SDS011;640;48.310;11.728;2022-07-11T13:43:44;3.08;;;0.88;;
1294;SDS011;640;48.310;11.728;2022-07-11T13:46:30;2.15;;;0.60;;
1294;SDS011;640;48.310;11.728;2022-07-11T13:48:58;2.20;;;0.88;;
1294;SDS011;640;48.310;11.728;2022-07-11T13:51:27;2.00;;;0.65;;
1294;SDS011;640;48.310;11.728;2022-07-11T13:53:55;0.80;;;0.75;;
1294;SDS011;640;48.310;11.728;2022-07-11T13:56:24;1.17;;;0.60;;
1294;SDS011;640;48.310;11.728;2022-07-11T13:58:54;0.95;;;0.70;;
1294;SDS011;640;48.310;11.728;2022-07-11T14:01:22;1.52;;;0.90;;
1294;SDS011;640;48.310;11.728;2022-07-11T14:03:51;1.17;;;0.80;;
1294;SDS011;640;48.310;11.728;2022-07-11T14:06:19;2.40;;;0.77;;
1294;SDS011;640;48.310;11.728;2022-07-11T14:09:08;0.63;;;0.60;;
1294;SDS011;640;48.310;11.728;2022-07-11T14:11:36;1.20;;;0.70;;
1294;SDS011;640;48.310;11.728;2022-07-11T14:14:06;1.65;;;0.80;;
1294;SDS011;640;48.310;11.728;2022-07-11T14:16:34;0.85;;;0.80;;
1294;SDS011;640;48.310;11.728;2022-07-11T14:19:02;0.65;;;0.65;;
1294;SDS011;640;48.310;11.728;2022-07-11T14:21:34;0.70;;;0.70;;
1294;SDS011;640;48.310;11.728;2022-07-11T14:24:03;1.95;;;0.70;;
1294;SDS011;640;48.310;11.728;2022-07-11T14:26:32;1.90;;;0.73;;
1294;SDS011;640;48.310;11.728;2022-07-11T14:29:01;3.75;;;1.00;;
1294;SDS011;640;48.310;11.728;2022-07-11T14:34:01;1.08;;;0.80;;
1294;SDS011;640;48.310;11.728;2022-07-11T14:36:29;2.60;;;0.80;;
1294;SDS011;640;48.310;11.728;2022-07-11T14:38:58;1.33;;;0.82;;
1294;SDS011;640;48.310;11.728;2022-07-11T14:41:26;0.93;;;0.65;;
1294;SDS011;640;48.310;11.728;2022-07-11T14:43:55;1.42;;;0.70;;
1294;SDS011;640;48.310;11.728;2022-07-11T14:46:24;2.25;;;0.77;;
1294;SDS011;640;48.310;11.728;2022-07-11T14:48:54;1.08;;;0.80;;
1294;SDS011;640;48.310;11.728;2022-07-11T14:51:22;1.38;;;0.75;;
1294;SDS011;640;48.310;11.728;2022-07-11T14:54:10;1.10;;;0.70;;
1294;SDS011;640;48.310;11.728;2022-07-11T14:56:39;1.88;;;0.80;;
1294;SDS011;640;48.310;11.728;2022-07-11T14:59:08;1.95;;;0.60;;
1294;SDS011;640;48.310;11.728;2022-07-11T15:01:36;2.78;;;0.80;;
1294;SDS011;640;48.310;11.728;2022-07-11T15:04:06;2.42;;;0.68;;
1294;SDS011;640;48.310;11.728;2022-07-11T15:06:34;1.38;;;0.70;;
1294;SDS011;640;48.310;11.728;2022-07-11T15:09:21;1.05;;;0.80;;
1294;SDS011;640;48.310;11.728;2022-07-11T15:12:06;2.13;;;0.80;;
1294;SDS011;640;48.310;11.728;2022-07-11T15:14:51;1.10;;;0.70;;
1294;SDS011;640;48.310;11.728;2022-07-11T15:17:20;2.88;;;0.80;;
1294;SDS011;640;48.310;11.728;2022-07-11T15:19:51;1.17;;;0.60;;
1294;SDS011;640;48.310;11.728;2022-07-11T15:22:20;0.88;;;0.70;;
1294;SDS011;640;48.310;11.728;2022-07-11T15:24:49;0.73;;;0.73;;
1294;SDS011;640;48.310;11.728;2022-07-11T15:27:18;1.33;;;0.70;;
1294;SDS011;640;48.310;11.728;2022-07-11T15:29:46;2.42;;;0.63;;
1294;SDS011;640;48.310;11.728;2022-07-11T15:32:15;0.80;;;0.63;;
1294;SDS011;640;48.310;11.728;2022-07-11T15:34:43;0.85;;;0.50;;
1294;SDS011;640;48.310;11.728;2022-07-11T15:39:43;0.90;;;0.80;;
1294;SDS011;640;48.310;11.728;2022-07-11T15:42:11;2.03;;;0.85;;
1294;SDS011;640;48.310;11.728;2022-07-11T15:44:40;0.85;;;0.70;;
1294;SDS011;640;48.310;11.728;2022-07-11T15:47:08;0.93;;;0.60;;
1294;SDS011;640;48.310;11.728;2022-07-11T15:49:36;1.15;;;0.70;;
1294;SDS011;640;48.310;11.728;2022-07-11T15:52:05;1.00;;;0.77;;
1294;SDS011;640;48.310;11.728;2022-07-11T15:54:35;1.90;;;0.60;;
1294;SDS011;640;48.310;11.728;2022-07-11T15:57:03;0.63;;;0.63;;
1294;SDS011;640;48.310;11.728;2022-07-11T15:59:32;0.73;;;0.73;;
1294;SDS011;640;48.310;11.728;2022-07-11T16:02:01;1.92;;;0.77;;
1294;SDS011;640;48.310;11.728;2022-07-11T16:04:29;0.85;;;0.75;;
1294;SDS011;640;48.310;11.728;2022-07-11T16:06:58;1.42;;;0.80;;